Time;durP1;ratioP1;P1;durP2;ratioP2;P2;SDS_P1;SDS_P2;PMS_P1;PMS_P2;Temp;Humidity;BMP_temperature;BMP_pressure;BME280_temperature;BME280_humidity;BME280_pressure;Samples;Min_cycle;Max_cycle;Signal;HPM_P1;HPM_P2
2022/05/19 00:01:56;;;;;;;31.60;19.92;;;16.90;99.90;;;;;;5049243;28;20460;-67
2022/05/19 00:04:22;;;;;;;25.67;18.67;;;16.90;99.90;;;;;;5051959;28;20490;-67
2022/05/19 00:06:48;;;;;;;29.88;19.58;;;16.90;99.90;;;;;;5051104;28;20056;-67
2022/05/19 00:09:14;;;;;;;30.55;21.40;;;17.80;99.90;;;;;;5049805;28;20092;-68
2022/05/19 00:11:41;;;;;;;30.73;21.10;;;17.00;99.90;;;;;;5049738;28;20131;-67
2022/05/19 00:14:08;;;;;;;32.03;21.40;;;17.00;99.90;;;;;;5066505;28;20349;-67
2022/05/19 00:16:34;;;;;;;32.50;21.15;;;17.00;99.90;;;;;;5069444;28;20037;-67
2022/05/19 00:18:59;;;;;;;30.63;20.73;;;17.00;99.90;;;;;;5073007;28;20109;-67
2022/05/19 00:21:25;;;;;;;31.20;20.15;;;17.00;99.90;;;;;;5068350;28;20048;-68
2022/05/19 00:23:51;;;;;;;33.65;22.27;;;17.10;99.90;;;;;;5051619;28;20078;-67
2022/05/19 00:26:16;;;;;;;31.08;20.77;;;17.20;99.90;;;;;;5069603;28;20524;-67
2022/05/19 00:28:42;;;;;;;29.58;20.65;;;17.10;99.90;;;;;;5068751;28;20115;-67
2022/05/19 00:31:08;;;;;;;32.67;22.08;;;17.00;99.90;;;;;;5069780;28;20052;-68
2022/05/19 00:33:34;;;;;;;31.55;20.60;;;17.40;99.90;;;;;;5070341;28;20410;-67
2022/05/19 00:36:10;;;;;;;36.40;22.60;;;17.00;99.90;;;;;;5070422;28;20052;-67
2022/05/19 00:38:36;;;;;;;33.30;20.90;;;17.00;99.90;;;;;;5069408;28;20056;-67
2022/05/19 00:41:02;;;;;;;32.28;20.70;;;16.90;99.90;;;;;;5070006;28;20044;-67
2022/05/19 00:43:35;;;;;;;28.08;20.50;;;16.90;99.90;;;;;;5069386;28;20052;-68
2022/05/19 00:46:12;;;;;;;31.38;21.08;;;17.10;99.90;;;;;;5055529;28;20037;-67
2022/05/19 00:49:05;;;;;;;30.25;20.33;;;16.80;99.90;;;;;;5050222;28;20085;-67
2022/05/19 00:51:42;;;;;;;32.45;21.83;;;16.90;99.90;;;;;;5046318;28;20068;-67
2022/05/19 00:54:11;;;;;;;28.33;20.85;;;16.80;99.90;;;;;;5049777;28;20493;-67
2022/05/19 00:56:50;;;;;;;33.47;22.73;;;17.60;99.90;;;;;;5049207;28;20045;-67
2022/05/19 00:59:31;;;;;;;36.25;24.85;;;16.70;99.90;;;;;;5030521;28;20137;-67
2022/05/19 01:01:57;;;;;;;32.63;23.85;;;16.60;99.90;;;;;;5049728;28;20135;-67
2022/05/19 01:04:59;;;;;;;33.83;24.88;;;16.70;99.90;;;;;;5049025;28;20176;-67
2022/05/19 01:07:54;;;;;;;36.20;25.20;;;16.60;99.90;;;;;;5049757;28;20053;-67
2022/05/19 01:10:20;;;;;;;34.65;24.90;;;16.60;99.90;;;;;;5046686;28;20053;-67
2022/05/19 01:12:47;;;;;;;37.20;25.25;;;16.50;99.90;;;;;;5047989;28;20131;-67
2022/05/19 01:15:14;;;;;;;34.38;25.10;;;16.40;99.90;;;;;;5049515;28;20045;-68
2022/05/19 01:17:40;;;;;;;37.90;26.05;;;16.50;99.90;;;;;;5049918;28;20096;-68
2022/05/19 01:20:15;;;;;;;37.47;25.73;;;16.50;99.90;;;;;;5049487;28;20129;-67
2022/05/19 01:22:51;;;;;;;37.45;26.90;;;16.50;99.90;;;;;;5047556;28;20049;-67
2022/05/19 01:25:44;;;;;;;40.13;27.02;;;16.50;99.90;;;;;;5048895;28;20064;-68
2022/05/19 01:28:10;;;;;;;36.83;26.83;;;16.40;99.90;;;;;;5031387;28;20049;-69
2022/05/19 01:30:36;;;;;;;38.53;27.00;;;16.40;99.90;;;;;;5048870;28;20095;-68
2022/05/19 01:33:03;;;;;;;35.78;27.05;;;16.40;99.90;;;;;;5050410;28;20084;-68
2022/05/19 01:35:33;;;;;;;38.22;26.30;;;16.40;99.90;;;;;;5046961;28;20044;-68
2022/05/19 01:38:02;;;;;;;29.27;26.10;;;16.40;99.90;;;;;;5047665;28;20406;-68
2022/05/19 01:40:49;;;;;;;32.88;25.92;;;16.30;99.90;;;;;;5047751;28;20453;-67
2022/05/19 01:43:30;;;;;;;43.88;28.20;;;16.30;99.90;;;;;;5047778;28;20049;-67
2022/05/19 01:46:15;;;;;;;36.45;27.30;;;16.30;99.90;;;;;;5049088;28;20048;-67
2022/05/19 01:49:03;;;;;;;36.83;27.27;;;16.30;99.90;;;;;;5048703;28;20287;-66
2022/05/19 01:51:55;;;;;;;40.05;27.83;;;16.30;99.90;;;;;;5048649;28;20488;-67
2022/05/19 01:55:01;;;;;;;40.92;29.95;;;16.30;99.90;;;;;;5046669;28;20052;-67
2022/05/19 01:57:31;;;;;;;40.70;30.13;;;16.30;99.90;;;;;;5046969;28;20132;-68
2022/05/19 02:00:18;;;;;;;41.78;29.30;;;16.20;99.90;;;;;;5065995;28;20117;-67
2022/05/19 02:03:09;;;;;;;39.60;30.08;;;16.20;99.90;;;;;;5048071;28;20048;-67
2022/05/19 02:06:01;;;;;;;39.10;29.38;;;16.20;99.90;;;;;;5047971;28;20045;-67
2022/05/19 02:08:29;;;;;;;38.45;29.05;;;16.10;99.90;;;;;;5047059;28;20132;-67
2022/05/19 02:10:59;;;;;;;40.08;29.80;;;16.20;99.90;;;;;;5048242;28;20118;-67
2022/05/19 02:13:25;;;;;;;41.58;32.05;;;16.10;99.90;;;;;;5046982;28;20069;-67
2022/05/19 02:15:53;;;;;;;42.58;33.50;;;16.10;99.90;;;;;;5049804;28;20045;-66
2022/05/19 02:18:24;;;;;;;45.15;35.88;;;16.10;99.90;;;;;;5050060;28;20049;-67
2022/05/19 02:20:52;;;;;;;53.80;38.08;;;16.10;99.90;;;;;;5048752;28;20433;-67
2022/05/19 02:23:17;;;;;;;46.00;35.60;;;16.10;99.90;;;;;;5045237;28;20131;-67
2022/05/19 02:25:46;;;;;;;52.30;39.00;;;16.10;99.90;;;;;;5048315;28;20459;-67
2022/05/19 02:28:29;;;;;;;52.80;40.50;;;16.10;99.90;;;;;;5045780;28;20090;-67
2022/05/19 02:30:56;;;;;;;52.42;39.75;;;16.10;99.90;;;;;;5047876;28;20051;-67
2022/05/19 02:33:22;;;;;;;57.45;40.95;;;16.10;99.90;;;;;;5047601;28;20179;-67
2022/05/19 02:35:48;;;;;;;53.60;40.40;;;16.10;99.90;;;;;;5049492;28;20140;-67
2022/05/19 02:38:15;;;;;;;58.25;43.00;;;16.00;99.90;;;;;;5047246;28;20049;-67
2022/05/19 02:40:42;;;;;;;57.92;42.58;;;16.00;99.90;;;;;;5047602;28;20127;-67
2022/05/19 02:43:08;;;;;;;61.35;44.60;;;16.00;99.90;;;;;;5046828;28;20040;-67
2022/05/19 02:45:34;;;;;;;59.22;44.00;;;16.00;99.90;;;;;;5056825;28;20040;-67
2022/05/19 02:48:01;;;;;;;62.33;44.80;;;16.00;99.90;;;;;;5068495;28;20041;-67
2022/05/19 02:50:27;;;;;;;60.67;44.65;;;16.10;99.90;;;;;;5067813;28;20055;-67
2022/05/19 02:52:53;;;;;;;61.15;44.95;;;16.00;99.90;;;;;;5066152;28;20480;-67
2022/05/19 02:55:19;;;;;;;59.63;42.67;;;16.00;99.90;;;;;;5067197;28;20047;-67
2022/05/19 02:57:45;;;;;;;55.05;42.90;;;16.00;99.90;;;;;;5066104;28;20061;-67
2022/05/19 03:00:17;;;;;;;52.50;40.97;;;16.00;99.90;;;;;;5067040;28;20323;-67
2022/05/19 03:02:43;;;;;;;49.17;40.17;;;16.00;99.90;;;;;;5067338;28;20398;-67
2022/05/19 03:05:11;;;;;;;48.50;39.15;;;16.70;99.90;;;;;;5067864;28;20090;-67
2022/05/19 03:07:37;;;;;;;49.80;38.85;;;16.10;99.90;;;;;;5067161;28;20134;-67
2022/05/19 03:10:04;;;;;;;51.97;38.47;;;16.10;99.90;;;;;;5068286;28;20099;-67
2022/05/19 03:12:29;;;;;;;53.63;37.95;;;16.10;99.90;;;;;;5066613;28;20048;-67
2022/05/19 03:14:55;;;;;;;51.17;38.60;;;16.20;99.90;;;;;;5066268;28;20425;-67
2022/05/19 03:17:21;;;;;;;54.15;37.65;;;16.10;99.90;;;;;;5067469;28;20123;-67
2022/05/19 03:19:47;;;;;;;52.88;37.63;;;16.10;99.90;;;;;;5067284;28;20053;-67
2022/05/19 03:22:12;;;;;;;53.58;38.17;;;16.80;99.90;;;;;;5067076;28;20044;-67
2022/05/19 03:24:38;;;;;;;49.45;38.67;;;16.20;99.90;;;;;;5068089;28;20056;-67
2022/05/19 03:27:05;;;;;;;51.30;38.50;;;16.20;99.90;;;;;;5065816;28;20480;-67
2022/05/19 03:29:30;;;;;;;50.22;38.00;;;16.20;99.90;;;;;;5067300;28;20045;-67
2022/05/19 03:31:59;;;;;;;49.25;37.78;;;16.20;99.90;;;;;;5067352;28;20045;-67
2022/05/19 03:34:24;;;;;;;53.20;38.83;;;16.20;99.90;;;;;;5066776;28;20506;-67
2022/05/19 03:36:50;;;;;;;56.13;39.28;;;16.30;99.90;;;;;;5067681;28;20044;-67
2022/05/19 03:39:16;;;;;;;52.80;37.92;;;16.40;99.90;;;;;;5067392;28;20094;-67
2022/05/19 03:41:42;;;;;;;52.75;39.38;;;16.20;99.90;;;;;;5066207;28;20041;-66
2022/05/19 03:44:07;;;;;;;53.10;38.70;;;16.20;99.90;;;;;;5067610;28;20044;-66
2022/05/19 03:46:33;;;;;;;53.80;38.78;;;16.20;99.90;;;;;;5067611;28;20039;-67
2022/05/19 03:48:59;;;;;;;55.88;39.17;;;16.20;99.90;;;;;;5067401;28;20090;-67
2022/05/19 03:51:27;;;;;;;53.58;40.28;;;16.40;99.90;;;;;;5069832;28;20053;-66
2022/05/19 03:53:54;;;;;;;54.17;40.15;;;16.20;99.90;;;;;;5070517;28;20438;-67
2022/05/19 03:56:21;;;;;;;53.88;39.83;;;16.20;99.90;;;;;;5069551;28;20421;-66
2022/05/19 03:58:47;;;;;;;61.08;39.72;;;16.20;99.90;;;;;;5069596;28;20076;-67
2022/05/19 04:01:12;;;;;;;51.47;39.55;;;16.20;99.90;;;;;;5071643;28;20052;-67
2022/05/19 04:03:38;;;;;;;49.42;40.75;;;16.40;99.90;;;;;;5069905;28;20469;-66
2022/05/19 04:06:04;;;;;;;53.78;39.95;;;16.30;99.90;;;;;;5059509;28;20477;-67
2022/05/19 04:08:30;;;;;;;49.80;38.47;;;16.30;99.90;;;;;;5049278;28;20053;-66
2022/05/19 04:10:57;;;;;;;53.75;40.50;;;16.30;99.90;;;;;;5050723;28;20045;-67
2022/05/19 04:13:22;;;;;;;53.15;40.05;;;16.40;99.90;;;;;;5058614;28;20055;-67
2022/05/19 04:15:48;;;;;;;55.45;39.63;;;16.40;99.90;;;;;;5070695;28;20048;-68
2022/05/19 04:18:14;;;;;;;54.15;38.53;;;16.50;99.90;;;;;;5070222;28;20409;-67
2022/05/19 04:20:40;;;;;;;53.47;39.60;;;16.50;99.90;;;;;;5070326;28;20040;-66
2022/05/19 04:23:07;;;;;;;57.72;40.72;;;16.60;99.90;;;;;;5067704;28;20549;-67
2022/05/19 04:25:33;;;;;;;54.35;41.92;;;16.60;99.90;;;;;;5069694;28;20480;-66
2022/05/19 04:28:00;;;;;;;56.70;41.58;;;16.60;99.90;;;;;;5069860;28;20813;-67
2022/05/19 04:30:26;;;;;;;54.58;41.72;;;16.60;99.90;;;;;;5069230;28;20418;-67
2022/05/19 04:32:52;;;;;;;55.03;42.40;;;16.70;99.90;;;;;;5070376;28;20038;-67
2022/05/19 04:35:18;;;;;;;59.67;43.28;;;16.60;99.90;;;;;;5070664;28;20441;-67
2022/05/19 04:37:45;;;;;;;57.92;44.35;;;16.70;99.90;;;;;;5067092;28;20120;-67
2022/05/19 04:40:13;;;;;;;58.55;43.85;;;16.80;99.90;;;;;;5069221;28;20053;-67
2022/05/19 04:42:39;;;;;;;57.00;43.30;;;16.80;99.90;;;;;;5068538;28;20174;-67
2022/05/19 04:45:06;;;;;;;57.92;44.60;;;16.90;99.90;;;;;;5069584;28;20102;-67
2022/05/19 04:47:32;;;;;;;63.33;44.28;;;16.90;99.90;;;;;;5069347;28;20083;-67
2022/05/19 04:49:57;;;;;;;58.80;42.20;;;16.90;99.90;;;;;;5070058;28;20080;-67
2022/05/19 04:52:23;;;;;;;57.08;43.75;;;17.10;99.90;;;;;;5068376;28;20516;-67
2022/05/19 04:54:49;;;;;;;58.72;44.17;;;17.20;99.90;;;;;;5060244;28;20053;-66
2022/05/19 04:57:15;;;;;;;62.22;43.63;;;17.30;99.90;;;;;;5048943;28;20045;-67
2022/05/19 04:59:42;;;;;;;54.17;42.42;;;17.30;99.90;;;;;;5049954;28;20516;-67
2022/05/19 05:02:10;;;;;;;56.67;42.80;;;17.50;99.90;;;;;;5046968;28;20041;-67
2022/05/19 05:04:36;;;;;;;57.20;42.58;;;17.50;99.90;;;;;;5048926;28;20044;-67
2022/05/19 05:07:01;;;;;;;55.45;43.70;;;17.60;99.90;;;;;;5064440;28;20458;-67
2022/05/19 05:09:27;;;;;;;60.67;43.45;;;17.70;99.90;;;;;;5049236;28;20134;-67
2022/05/19 05:11:53;;;;;;;55.45;42.72;;;17.70;99.90;;;;;;5048097;28;20401;-67
2022/05/19 05:14:19;;;;;;;64.32;42.88;;;17.70;99.90;;;;;;5048588;28;20505;-67
2022/05/19 05:16:48;;;;;;;65.82;44.13;;;17.80;99.90;;;;;;5049723;28;20048;-67
2022/05/19 05:19:23;;;;;;;57.35;42.85;;;17.90;99.90;;;;;;5047189;28;20086;-67
2022/05/19 05:21:51;;;;;;;60.33;41.08;;;18.00;99.90;;;;;;5048013;28;20041;-67
2022/05/19 05:24:17;;;;;;;57.13;40.15;;;18.10;99.90;;;;;;5048790;28;20102;-68
2022/05/19 05:26:43;;;;;;;55.90;37.45;;;18.10;99.90;;;;;;5047686;28;20496;-67
2022/05/19 05:29:09;;;;;;;53.75;37.72;;;18.50;99.90;;;;;;5048487;28;20037;-67
2022/05/19 05:31:35;;;;;;;54.75;39.10;;;18.40;99.90;;;;;;5047202;28;20503;-67
2022/05/19 05:34:00;;;;;;;50.55;36.70;;;18.40;99.90;;;;;;5047850;28;20127;-67
2022/05/19 05:36:26;;;;;;;50.10;37.33;;;18.50;99.90;;;;;;5048234;28;20766;-66
2022/05/19 05:38:52;;;;;;;48.47;35.05;;;18.60;99.90;;;;;;5050089;28;20049;-67
2022/05/19 05:41:17;;;;;;;48.28;35.30;;;19.00;99.90;;;;;;5045460;28;20044;-67
2022/05/19 05:43:43;;;;;;;44.97;35.17;;;18.80;99.90;;;;;;5048554;28;20077;-68
2022/05/19 05:46:12;;;;;;;43.78;33.08;;;19.10;99.90;;;;;;5048212;28;20060;-68
2022/05/19 05:48:38;;;;;;;46.72;32.45;;;19.00;99.90;;;;;;5047006;28;20091;-68
2022/05/19 05:51:05;;;;;;;41.65;32.58;;;19.20;99.90;;;;;;5048699;28;20133;-68
2022/05/19 05:53:31;;;;;;;39.65;32.38;;;19.40;99.90;;;;;;5047330;28;20044;-68
2022/05/19 05:55:56;;;;;;;39.28;31.13;;;19.40;99.90;;;;;;5048396;28;20052;-68
2022/05/19 05:58:22;;;;;;;47.55;32.30;;;20.00;99.90;;;;;;5046228;28;20167;-68
2022/05/19 06:00:47;;;;;;;42.67;31.67;;;19.60;99.90;;;;;;5046524;28;20064;-68
2022/05/19 06:03:13;;;;;;;41.05;31.67;;;19.70;99.90;;;;;;5047041;28;20049;-68
2022/05/19 06:05:38;;;;;;;46.80;32.30;;;19.70;99.90;;;;;;5056319;28;20119;-68
2022/05/19 06:08:04;;;;;;;36.15;29.13;;;19.80;99.90;;;;;;5066001;28;20045;-68
2022/05/19 06:10:30;;;;;;;39.45;28.83;;;19.90;99.90;;;;;;5068320;28;20174;-68
2022/05/19 06:12:56;;;;;;;39.58;28.65;;;20.00;99.90;;;;;;5067309;28;20150;-68
2022/05/19 06:15:22;;;;;;;35.45;27.63;;;20.00;99.90;;;;;;5066122;28;20107;-68
2022/05/19 06:17:48;;;;;;;35.90;26.80;;;20.00;99.90;;;;;;5067884;28;20120;-68
2022/05/19 06:20:16;;;;;;;34.72;26.95;;;20.10;99.90;;;;;;5069757;28;20451;-68
2022/05/19 06:22:43;;;;;;;34.58;25.60;;;20.20;99.90;;;;;;5067574;28;20044;-68
2022/05/19 06:25:10;;;;;;;32.25;23.30;;;20.30;99.90;;;;;;5067543;28;20106;-68
2022/05/19 06:27:36;;;;;;;35.35;23.70;;;20.40;99.90;;;;;;5066651;28;20032;-68
2022/05/19 06:30:03;;;;;;;31.08;22.67;;;20.60;99.90;;;;;;5066955;28;20106;-69
2022/05/19 06:32:28;;;;;;;27.95;21.88;;;20.60;99.90;;;;;;5066045;28;20059;-69
2022/05/19 06:34:54;;;;;;;30.00;22.17;;;20.60;99.90;;;;;;5067794;28;20044;-68
2022/05/19 06:37:20;;;;;;;25.30;21.13;;;20.70;99.90;;;;;;5066023;28;20077;-68
2022/05/19 06:39:45;;;;;;;28.17;21.65;;;20.70;99.90;;;;;;5063434;28;20098;-68
2022/05/19 06:42:14;;;;;;;27.77;20.92;;;20.70;99.90;;;;;;5048023;28;20051;-67
2022/05/19 06:44:42;;;;;;;30.80;21.65;;;20.80;99.90;;;;;;5046015;28;20099;-67
2022/05/19 06:47:13;;;;;;;30.98;21.70;;;20.70;99.90;;;;;;5047095;28;20108;-68
2022/05/19 06:49:44;;;;;;;27.55;21.48;;;20.70;99.90;;;;;;5046961;28;20502;-68
2022/05/19 06:52:14;;;;;;;27.30;21.63;;;20.60;99.90;;;;;;5048101;28;20044;-68
2022/05/19 06:54:44;;;;;;;27.48;21.83;;;20.50;99.90;;;;;;5047644;28;20088;-67
2022/05/19 06:57:10;;;;;;;27.92;22.42;;;20.40;99.90;;;;;;5045729;28;20053;-68
2022/05/19 06:59:36;;;;;;;27.65;21.20;;;20.30;99.90;;;;;;5046111;28;20049;-67
2022/05/19 07:02:04;;;;;;;25.83;21.33;;;20.20;99.90;;;;;;5047376;28;20057;-67
2022/05/19 07:04:29;;;;;;;26.08;21.08;;;20.10;99.90;;;;;;5049053;28;20045;-67
2022/05/19 07:06:55;;;;;;;27.25;20.67;;;19.90;99.90;;;;;;5067166;28;20055;-67
2022/05/19 07:09:20;;;;;;;26.38;20.27;;;19.90;99.90;;;;;;5066015;28;20855;-67
2022/05/19 07:11:46;;;;;;;24.27;19.10;;;19.80;99.90;;;;;;5065522;28;20040;-67
2022/05/19 07:14:12;;;;;;;22.63;17.80;;;19.80;99.90;;;;;;5047567;28;20508;-68
2022/05/19 07:16:38;;;;;;;25.02;19.83;;;19.90;99.90;;;;;;5047207;28;20037;-67
2022/05/19 07:21:48;;;;;;;22.93;18.83;;;19.90;99.90;;;;;;5047057;28;20382;-67
2022/05/19 07:24:20;;;;;;;27.15;19.75;;;19.90;99.90;;;;;;5044520;28;20051;-67
2022/05/19 07:26:52;;;;;;;27.02;20.70;;;19.90;99.90;;;;;;5049088;28;20048;-67
2022/05/19 07:29:18;;;;;;;27.73;20.15;;;19.90;99.90;;;;;;5050122;28;20040;-67
2022/05/19 07:31:46;;;;;;;24.42;18.80;;;19.90;99.90;;;;;;5050552;28;20106;-68
2022/05/19 07:34:14;;;;;;;26.75;20.42;;;19.90;99.90;;;;;;5051325;28;20045;-68
2022/05/19 07:36:40;;;;;;;28.35;19.88;;;19.80;99.90;;;;;;5052018;28;20128;-68
2022/05/19 07:39:07;;;;;;;26.35;20.65;;;19.90;99.90;;;;;;5048597;28;20072;-68
2022/05/19 07:41:33;;;;;;;26.75;20.08;;;19.90;99.90;;;;;;5049752;28;20048;-67
2022/05/19 07:43:59;;;;;;;28.83;20.88;;;19.80;99.90;;;;;;5049282;28;20060;-67
2022/05/19 07:46:27;;;;;;;26.90;21.23;;;19.80;99.90;;;;;;5049617;28;20081;-68
2022/05/19 07:48:55;;;;;;;26.48;21.85;;;19.80;99.90;;;;;;5050954;28;20044;-67
2022/05/19 07:51:27;;;;;;;29.60;21.50;;;19.90;99.90;;;;;;5050030;28;20110;-67
2022/05/19 07:53:53;;;;;;;26.45;20.15;;;19.90;99.90;;;;;;5053636;28;20045;-68
2022/05/19 07:56:19;;;;;;;24.83;18.23;;;20.00;99.90;;;;;;5048927;28;20041;-68
2022/05/19 07:58:48;;;;;;;26.48;18.88;;;20.00;99.90;;;;;;5049568;28;20049;-68
2022/05/19 08:01:17;;;;;;;22.58;14.48;;;20.00;99.90;;;;;;5049719;28;20045;-69
2022/05/19 08:03:42;;;;;;;26.50;15.15;;;20.00;99.90;;;;;;5050673;28;20053;-68
2022/05/19 08:06:10;;;;;;;22.15;15.10;;;19.90;99.90;;;;;;5049236;28;20048;-67
2022/05/19 08:08:39;;;;;;;24.75;13.57;;;19.90;99.90;;;;;;5048917;28;20057;-68
2022/05/19 08:11:05;;;;;;;20.48;11.48;;;19.90;99.90;;;;;;5048082;28;20124;-68
2022/05/19 08:16:15;;;;;;;24.65;12.80;;;20.00;99.90;;;;;;5070148;28;20045;-68
2022/05/19 08:18:41;;;;;;;21.55;13.68;;;20.20;99.90;;;;;;5070412;28;20123;-69
2022/05/19 08:21:11;;;;;;;24.92;13.93;;;20.30;99.90;;;;;;5069192;28;20040;-68
2022/05/19 08:23:39;;;;;;;23.83;12.98;;;20.40;99.90;;;;;;5068431;28;20536;-68
2022/05/19 08:26:08;;;;;;;19.35;11.48;;;20.40;99.90;;;;;;5072251;28;20423;-68
2022/05/19 08:28:35;;;;;;;15.05;9.57;;;20.40;99.90;;;;;;5070368;28;20068;-68
2022/05/19 08:31:06;;;;;;;18.23;9.45;;;20.50;99.90;;;;;;5070292;28;20043;-68
2022/05/19 08:33:34;;;;;;;16.17;8.73;;;20.40;99.90;;;;;;5069150;28;20057;-68
2022/05/19 08:35:59;;;;;;;13.13;7.95;;;20.40;99.90;;;;;;5072383;28;20106;-68
2022/05/19 08:38:25;;;;;;;14.13;8.82;;;20.30;99.90;;;;;;5070877;28;20489;-68
2022/05/19 08:40:53;;;;;;;14.27;7.82;;;20.30;99.90;;;;;;5070956;28;20052;-68
2022/05/19 08:43:24;;;;;;;14.02;7.97;;;20.30;99.90;;;;;;5066623;28;20055;-68
2022/05/19 08:45:57;;;;;;;13.40;7.75;;;20.30;99.90;;;;;;5052140;28;20040;-68
2022/05/19 08:48:26;;;;;;;16.33;8.25;;;20.40;99.90;;;;;;5068276;28;20048;-68
2022/05/19 08:50:57;;;;;;;14.57;8.55;;;20.40;99.90;;;;;;5066192;28;20378;-68
2022/05/19 08:53:33;;;;;;;15.60;7.32;;;20.60;99.90;;;;;;5046815;28;20045;-67
2022/05/19 08:56:04;;;;;;;;;;;20.80;99.90;;;;;;5051062;28;20124;-67
2022/05/19 08:58:51;;;;;;;14.20;7.75;;;21.10;99.90;;;;;;5048446;28;19936;-67
2022/05/19 09:01:47;;;;;;;13.40;7.30;;;21.30;99.90;;;;;;5049070;28;20060;-67
2022/05/19 09:04:42;;;;;;;12.48;7.50;;;21.60;99.90;;;;;;5049949;28;20136;-67
2022/05/19 09:10:31;;;;;;;13.57;6.43;;;22.20;99.90;;;;;;5048027;28;20387;-67
2022/05/19 09:13:23;;;;;;;15.30;6.80;;;22.50;99.90;;;;;;5048648;28;20045;-67
2022/05/19 09:15:49;;;;;;;11.77;6.72;;;22.70;99.90;;;;;;5047528;28;20155;-68
2022/05/19 09:18:18;;;;;;;12.45;6.60;;;22.80;99.90;;;;;;5048048;28;20173;-68
2022/05/19 09:20:50;;;;;;;9.63;5.45;;;22.90;99.90;;;;;;5047832;28;20059;-67
2022/05/19 09:23:16;;;;;;;11.52;5.18;;;23.00;99.90;;;;;;5046978;28;20120;-68
2022/05/19 09:25:49;;;;;;;9.30;5.18;;;23.20;99.90;;;;;;5048119;28;20559;-68
2022/05/19 09:28:15;;;;;;;15.00;5.68;;;23.40;99.90;;;;;;5048730;28;20511;-68
2022/05/19 09:30:53;;;;;;;9.15;5.78;;;24.10;99.90;;;;;;5050898;28;20055;-68
2022/05/19 09:33:30;;;;;;;9.02;5.10;;;23.70;99.90;;;;;;5049530;28;20045;-68
2022/05/19 09:35:58;;;;;;;10.75;5.22;;;23.90;99.90;;;;;;5050516;28;20159;-68
2022/05/19 09:38:36;;;;;;;9.82;5.00;;;23.90;99.90;;;;;;5028209;28;20060;-68
2022/05/19 09:41:05;;;;;;;8.75;5.30;;;24.10;99.90;;;;;;5057157;28;20127;-69
2022/05/19 09:43:36;;;;;;;8.93;5.10;;;24.30;99.90;;;;;;5067194;28;20930;-68
2022/05/19 09:46:11;;;;;;;8.73;4.88;;;24.30;99.90;;;;;;5068164;28;20111;-68
2022/05/19 09:48:48;;;;;;;10.70;5.70;;;24.70;99.90;;;;;;5068249;28;20048;-67
2022/05/19 09:51:17;;;;;;;9.85;5.70;;;24.30;99.90;;;;;;5068328;28;20060;-67
2022/05/19 09:53:57;;;;;;;8.82;5.57;;;24.70;99.90;;;;;;5068983;28;20082;-67
2022/05/19 09:56:25;;;;;;;9.88;5.10;;;24.60;99.90;;;;;;5066565;28;20052;-67
2022/05/19 09:59:06;;;;;;;10.73;5.40;;;24.60;99.90;;;;;;5067427;28;20048;-67
2022/05/19 10:01:39;;;;;;;8.82;4.90;;;24.70;99.90;;;;;;5068110;28;20045;-67
2022/05/19 10:04:26;;;;;;;8.32;4.68;;;24.60;99.90;;;;;;5067648;28;20358;-66
2022/05/19 10:06:58;;;;;;;8.50;4.47;;;24.50;99.90;;;;;;5066481;28;20044;-67
2022/05/19 10:09:31;;;;;;;8.60;4.40;;;24.60;99.90;;;;;;5067860;28;20166;-68
2022/05/19 10:12:12;;;;;;;9.20;4.70;;;24.90;99.90;;;;;;5066886;28;20048;-68
2022/05/19 10:14:39;;;;;;;9.82;4.68;;;25.10;99.90;;;;;;5063115;28;20040;-68
2022/05/19 10:17:10;;;;;;;9.85;4.22;;;25.40;99.90;;;;;;5047848;28;20118;-68
2022/05/19 10:19:48;;;;;;;7.80;4.40;;;25.60;99.90;;;;;;5047206;28;20037;-67
2022/05/19 10:22:34;;;;;;;12.57;4.53;;;25.90;99.90;;;;;;5046464;28;20045;-67
2022/05/19 10:25:21;;;;;;;8.10;4.45;;;26.20;99.90;;;;;;5048221;28;20384;-67
2022/05/19 10:31:13;;;;;;;7.72;4.28;;;26.90;99.90;;;;;;5047446;28;20060;-67
2022/05/19 10:34:19;;;;;;;8.13;4.30;;;27.60;99.90;;;;;;5045716;28;20127;-67
2022/05/19 10:37:23;;;;;;;7.50;4.18;;;29.90;99.90;;;;;;5047256;28;20049;-67
2022/05/19 10:40:14;;;;;;;7.65;3.83;;;32.00;98.20;;;;;;5045842;28;20512;-68
2022/05/19 10:42:59;;;;;;;7.80;3.70;;;33.90;95.80;;;;;;5046275;28;20045;-68
2022/05/19 10:45:24;;;;;;;6.65;3.85;;;34.80;94.60;;;;;;5047323;28;20084;-68
2022/05/19 10:47:50;;;;;;;6.00;3.80;;;35.50;93.50;;;;;;5046332;28;20084;-68
2022/05/19 10:50:27;;;;;;;6.85;4.40;;;34.70;93.70;;;;;;5046041;28;20124;-68
2022/05/19 10:53:07;;;;;;;10.10;4.18;;;33.70;93.80;;;;;;5046916;28;20474;-68
2022/05/19 10:55:58;;;;;;;7.72;3.80;;;32.20;94.60;;;;;;5046211;28;20600;-68
2022/05/19 10:59:00;;;;;;;7.60;4.43;;;30.90;95.20;;;;;;5045441;28;20065;-68
2022/05/19 11:02:00;;;;;;;7.20;3.80;;;29.60;96.50;;;;;;5048833;28;20071;-67
2022/05/19 11:04:44;;;;;;;7.72;4.47;;;29.40;98.40;;;;;;5050340;28;20084;-68
2022/05/19 11:07:20;;;;;;;6.55;4.15;;;31.70;97.10;;;;;;5050689;28;20481;-68
2022/05/19 11:09:57;;;;;;;9.27;4.05;;;33.60;95.00;;;;;;5050323;28;20045;-68
2022/05/19 11:12:52;;;;;;;11.95;6.53;;;34.30;94.10;;;;;;5052947;28;20036;-68
2022/05/19 11:15:30;;;;;;;9.97;6.27;;;35.40;92.30;;;;;;5069962;28;20151;-69
2022/05/19 11:18:07;;;;;;;10.80;5.97;;;36.20;91.60;;;;;;5070942;28;20759;-68
2022/05/19 11:20:47;;;;;;;8.35;5.03;;;36.50;91.10;;;;;;5071091;28;20060;-69
2022/05/19 11:23:25;;;;;;;7.57;5.30;;;38.00;90.10;;;;;;5069867;28;20165;-69
2022/05/19 11:26:24;;;;;;;8.60;5.57;;;39.50;86.70;;;;;;5071209;28;20079;-68
2022/05/19 11:29:05;;;;;;;9.40;6.35;;;40.40;83.10;;;;;;5069550;28;20238;-68
2022/05/19 11:32:04;;;;;;;7.43;4.95;;;40.70;77.70;;;;;;5071896;28;20048;-67
2022/05/19 11:34:39;;;;;;;10.00;5.45;;;40.20;77.20;;;;;;5064092;28;20541;-68
2022/05/19 11:37:23;;;;;;;9.50;6.10;;;39.90;77.10;;;;;;5069808;28;20233;-69
2022/05/19 11:40:03;;;;;;;9.20;6.32;;;39.40;75.00;;;;;;5070297;28;20079;-68
2022/05/19 11:42:53;;;;;;;11.88;6.47;;;37.50;75.40;;;;;;5049890;28;20041;-68
2022/05/19 11:45:27;;;;;;;15.75;6.32;;;35.20;77.40;;;;;;5048315;28;20048;-68
2022/05/19 11:56:35;;;;;;;9.23;4.45;;;30.60;87.50;;;;;;5049807;28;20172;-69
2022/05/19 11:59:01;;;;;;;9.40;6.60;;;30.30;89.60;;;;;;5048610;28;20057;-68
2022/05/19 12:01:37;;;;;;;10.77;7.80;;;30.20;90.80;;;;;;5048931;28;20079;-69
2022/05/19 12:04:36;;;;;;;12.80;9.00;;;30.20;91.80;;;;;;5049362;28;20036;-69
2022/05/19 12:07:36;;;;;;;12.32;8.45;;;29.70;93.10;;;;;;5039650;28;20450;-67
2022/05/19 12:10:03;;;;;;;12.93;8.63;;;29.30;94.80;;;;;;5056595;28;20469;-67
2022/05/19 12:12:36;;;;;;;15.93;8.30;;;28.80;96.00;;;;;;5064628;28;20044;-67
2022/05/19 12:15:21;;;;;;;14.55;9.00;;;28.30;97.70;;;;;;5069093;28;20047;-66
2022/05/19 12:18:12;;;;;;;13.10;8.32;;;28.00;99.00;;;;;;5068977;28;20377;-67
2022/05/19 12:20:59;;;;;;;14.15;8.68;;;27.70;99.90;;;;;;5068488;28;20044;-66
2022/05/19 12:23:33;;;;;;;12.35;7.50;;;27.40;99.90;;;;;;5067663;28;20044;-67
2022/05/19 12:26:10;;;;;;;13.93;9.52;;;27.00;99.90;;;;;;5067864;28;20485;-67
2022/05/19 12:28:52;;;;;;;13.75;9.50;;;26.90;99.90;;;;;;5067630;28;20045;-68
2022/05/19 12:34:14;;;;;;;17.33;10.13;;;26.50;99.90;;;;;;5068003;28;20052;-67
2022/05/19 12:36:52;;;;;;;13.30;10.88;;;26.40;99.90;;;;;;5066661;28;20055;-67
2022/05/19 12:39:18;;;;;;;18.40;10.63;;;26.30;99.90;;;;;;5066995;28;20147;-67
2022/05/19 12:41:49;;;;;;;15.20;11.00;;;26.10;99.90;;;;;;5067039;28;20131;-67
2022/05/19 12:44:44;;;;;;;14.80;9.70;;;25.90;99.90;;;;;;5066985;28;20045;-67
2022/05/19 12:47:15;;;;;;;11.40;9.63;;;25.70;99.90;;;;;;5065898;28;20117;-67
2022/05/19 12:50:02;;;;;;;13.05;8.95;;;25.60;99.90;;;;;;5069118;28;20048;-66
2022/05/19 12:52:56;;;;;;;13.05;9.45;;;25.50;99.90;;;;;;5039241;28;20049;-67
2022/05/19 12:55:24;;;;;;;13.45;9.25;;;25.30;99.90;;;;;;5048679;28;20053;-67
2022/05/19 12:57:55;;;;;;;13.32;8.52;;;25.20;99.90;;;;;;5011614;28;1039921;-67
2022/05/19 13:00:32;;;;;;;11.63;8.30;;;25.00;99.90;;;;;;5047843;28;20060;-67
2022/05/19 13:03:08;;;;;;;12.65;8.45;;;25.10;99.90;;;;;;5059826;28;20072;-67
2022/05/19 13:06:00;;;;;;;12.02;6.45;;;24.80;99.90;;;;;;5064354;28;20049;-67
2022/05/19 13:08:35;;;;;;;4.88;3.30;;;24.40;99.90;;;;;;5047327;28;20056;-68
2022/05/19 13:11:07;;;;;;;5.28;2.92;;;23.80;99.90;;;;;;5047727;28;20106;-68
2022/05/19 13:13:46;;;;;;;6.72;2.90;;;23.40;99.90;;;;;;5047904;28;20040;-68
2022/05/19 13:16:17;;;;;;;6.85;3.80;;;23.00;99.90;;;;;;5047751;28;20512;-66
2022/05/19 13:18:50;;;;;;;6.32;3.38;;;22.70;99.90;;;;;;5049855;28;20543;-68
2022/05/19 13:21:45;;;;;;;7.93;3.30;;;22.20;99.90;;;;;;5057058;28;20041;-68